createdAt,value
2022-11-21T00:00:37.283Z,26.85
2022-11-21T00:03:24.375Z,24.40
2022-11-21T00:06:09.999Z,23.92
2022-11-21T00:08:56.308Z,22.75
2022-11-21T00:11:41.897Z,21.10
2022-11-21T00:14:27.487Z,23.17
2022-11-21T00:17:13.195Z,25.35
2022-11-21T00:19:58.707Z,28.00
2022-11-21T00:22:44.415Z,26.50
2022-11-21T00:25:30.120Z,24.10
2022-11-21T00:28:15.418Z,23.88
2022-11-21T00:31:01.003Z,24.30
2022-11-21T00:33:46.243Z,23.40
2022-11-21T00:36:31.590Z,24.77
2022-11-21T00:39:17.241Z,22.27
2022-11-21T00:42:02.551Z,21.92
2022-11-21T00:44:48.049Z,22.20
2022-11-21T00:47:33.437Z,22.42
2022-11-21T00:50:19.021Z,22.42
2022-11-21T00:53:04.638Z,23.38
2022-11-21T00:55:50.151Z,22.83
2022-11-21T00:58:35.683Z,23.75
2022-11-21T01:01:21.212Z,23.83
2022-11-21T01:04:06.468Z,23.27
2022-11-21T01:06:51.919Z,23.38
2022-11-21T01:09:37.215Z,28.30
2022-11-21T01:12:22.606Z,27.30
2022-11-21T01:15:08.693Z,25.92
2022-11-21T01:17:54.082Z,24.88
2022-11-21T01:20:40.427Z,25.08
2022-11-21T01:23:25.710Z,23.73
2022-11-21T01:26:13.766Z,24.40
2022-11-21T01:29:00.716Z,24.83
2022-11-21T01:31:46.062Z,24.98
2022-11-21T01:34:31.548Z,24.88
2022-11-21T01:37:16.822Z,27.08
2022-11-21T01:40:02.317Z,27.80
2022-11-21T01:43:01.735Z,26.38
2022-11-21T01:45:54.460Z,25.73
2022-11-21T01:51:48.001Z,24.80
2022-11-21T01:54:49.063Z,23.88
2022-11-21T01:57:44.739Z,24.30
2022-11-21T02:00:35.754Z,25.55
2022-11-21T02:03:24.799Z,24.88
2022-11-21T02:06:11.750Z,26.10
2022-11-21T02:08:58.817Z,26.55
2022-11-21T02:12:00.536Z,26.67
2022-11-21T02:14:47.011Z,24.58
2022-11-21T02:17:33.226Z,25.75
2022-11-21T02:20:20.691Z,24.80
2022-11-21T02:23:36.628Z,25.63
2022-11-21T02:26:21.868Z,25.40
2022-11-21T02:29:07.279Z,26.95
2022-11-21T02:31:53.667Z,26.23
2022-11-21T02:34:39.035Z,27.67
2022-11-21T02:37:24.440Z,26.63
2022-11-21T02:40:15.579Z,27.13
2022-11-21T02:43:17.235Z,25.67
2022-11-21T02:46:02.736Z,26.95
2022-11-21T02:48:48.343Z,28.40
2022-11-21T02:51:33.504Z,28.23
2022-11-21T02:54:18.993Z,27.25
2022-11-21T02:57:04.451Z,27.50
2022-11-21T02:59:49.873Z,27.25
2022-11-21T03:02:35.984Z,26.73
2022-11-21T03:05:22.573Z,28.38
2022-11-21T03:08:07.926Z,26.60
2022-11-21T03:10:53.494Z,26.27
2022-11-21T03:13:38.925Z,24.98
2022-11-21T03:16:24.312Z,25.77
2022-11-21T03:19:09.648Z,25.05
2022-11-21T03:21:55.574Z,24.98
2022-11-21T03:24:41.891Z,25.60
2022-11-21T03:27:27.407Z,26.73
2022-11-21T03:30:13.345Z,26.63
2022-11-21T03:32:58.874Z,26.30
2022-11-21T03:35:44.121Z,26.13
2022-11-21T03:38:29.581Z,25.27
2022-11-21T03:41:29.952Z,24.95
2022-11-21T03:44:15.112Z,24.23
2022-11-21T03:47:00.538Z,24.50
2022-11-21T03:49:45.847Z,23.30
2022-11-21T03:52:31.232Z,22.60
2022-11-21T03:55:16.756Z,21.35
2022-11-21T03:58:02.050Z,20.15
2022-11-21T04:00:47.982Z,22.35
2022-11-21T04:03:33.755Z,20.38
2022-11-21T04:06:21.456Z,20.98
2022-11-21T04:09:06.508Z,23.05
2022-11-21T04:11:52.435Z,21.20
2022-11-21T04:14:37.856Z,21.38
2022-11-21T04:17:23.349Z,20.05
2022-11-21T04:20:09.671Z,20.58
2022-11-21T04:22:54.976Z,19.20
2022-11-21T04:25:41.311Z,19.33
2022-11-21T04:28:26.557Z,18.98
2022-11-21T04:31:12.236Z,19.42
2022-11-21T04:33:57.632Z,19.17
2022-11-21T04:36:43.125Z,18.90
2022-11-21T04:39:28.667Z,20.55
2022-11-21T04:42:14.095Z,21.67
2022-11-21T04:44:59.440Z,20.95
2022-11-21T04:47:46.550Z,24.33
2022-11-21T04:50:32.273Z,22.73
2022-11-21T04:53:17.325Z,21.42
2022-11-21T04:56:05.621Z,21.15
2022-11-21T04:58:52.946Z,20.65
2022-11-21T05:01:38.365Z,18.90
2022-11-21T05:04:23.719Z,21.45
2022-11-21T05:07:09.275Z,21.23
2022-11-21T05:09:54.713Z,22.88
2022-11-21T05:13:09.208Z,21.80
2022-11-21T05:15:57.921Z,19.83
2022-11-21T05:18:43.319Z,18.25
2022-11-21T05:21:28.607Z,17.55
2022-11-21T05:24:14.178Z,18.00
2022-11-21T05:26:59.710Z,18.63
2022-11-21T05:29:45.549Z,22.73
2022-11-21T05:32:30.830Z,22.00
2022-11-21T05:35:16.285Z,20.77
2022-11-21T05:38:01.635Z,19.70
2022-11-21T05:40:47.180Z,20.77
2022-11-21T05:43:47.554Z,21.25
2022-11-21T05:46:32.715Z,19.13
2022-11-21T05:49:18.019Z,19.67
2022-11-21T05:52:03.682Z,21.58
2022-11-21T05:54:49.024Z,20.23
2022-11-21T05:57:34.612Z,20.48
2022-11-21T06:00:20.121Z,22.60
2022-11-21T06:03:25.293Z,22.17
2022-11-21T06:06:13.519Z,21.77
2022-11-21T06:08:59.156Z,20.90
2022-11-21T06:11:44.478Z,21.63
2022-11-21T06:14:30.120Z,21.65
2022-11-21T06:17:16.002Z,21.10
2022-11-21T06:20:01.813Z,20.45
2022-11-21T06:22:46.872Z,21.05
2022-11-21T06:25:32.124Z,21.52
2022-11-21T06:28:17.363Z,23.50
2022-11-21T06:31:07.444Z,23.33
2022-11-21T06:33:57.702Z,22.70
2022-11-21T06:36:44.640Z,21.35
2022-11-21T06:39:30.084Z,20.80
2022-11-21T06:42:15.595Z,23.27
2022-11-21T06:45:00.936Z,22.75
2022-11-21T06:47:46.619Z,25.10
2022-11-21T06:50:32.140Z,26.02
2022-11-21T06:53:17.775Z,26.10
2022-11-21T06:56:03.982Z,23.90
2022-11-21T06:58:49.079Z,24.10
2022-11-21T07:01:34.674Z,26.38
2022-11-21T07:04:20.211Z,27.15
2022-11-21T07:07:05.688Z,28.10
2022-11-21T07:09:51.281Z,26.33
2022-11-21T07:12:55.036Z,26.35
2022-11-21T07:15:40.698Z,26.00
2022-11-21T07:18:26.899Z,28.40
2022-11-21T07:21:12.162Z,26.35
2022-11-21T07:23:57.675Z,25.23
2022-11-21T07:26:43.404Z,22.63
2022-11-21T07:29:29.177Z,22.13
2022-11-21T07:32:15.223Z,20.75
2022-11-21T07:35:00.296Z,23.60
2022-11-21T07:37:45.825Z,23.45
2022-11-21T07:40:34.625Z,24.63
2022-11-21T07:43:20.115Z,23.17
2022-11-21T07:46:05.607Z,24.30
2022-11-21T07:48:51.035Z,24.15
2022-11-21T07:51:36.475Z,24.40
2022-11-21T07:54:21.826Z,25.40
2022-11-21T07:57:07.196Z,24.17
2022-11-21T07:59:52.645Z,23.00
2022-11-21T08:02:38.346Z,26.02
2022-11-21T08:05:24.475Z,24.20
2022-11-21T08:08:11.365Z,25.58
2022-11-21T08:10:56.637Z,25.30
2022-11-21T08:13:42.000Z,23.65
2022-11-21T08:16:28.164Z,24.42
2022-11-21T08:19:13.710Z,22.02
2022-11-21T08:21:59.174Z,23.50
2022-11-21T08:24:44.632Z,24.98
2022-11-21T08:27:30.244Z,25.48
2022-11-21T08:30:15.746Z,24.60
2022-11-21T08:33:01.756Z,24.80
2022-11-21T08:35:47.240Z,26.23
2022-11-21T08:38:33.379Z,24.63
2022-11-21T08:41:56.522Z,25.33
2022-11-21T08:47:27.146Z,22.50
2022-11-21T08:50:12.545Z,22.42
2022-11-21T08:53:02.015Z,22.00
2022-11-21T08:55:47.523Z,22.33
2022-11-21T08:58:32.987Z,21.15
2022-11-21T09:01:18.542Z,19.48
2022-11-21T09:04:04.959Z,19.67
2022-11-21T09:06:50.411Z,19.48
2022-11-21T09:09:35.847Z,22.13
2022-11-21T09:12:21.364Z,21.17
2022-11-21T09:15:25.829Z,20.92
2022-11-21T09:18:11.148Z,23.08
2022-11-21T09:20:56.662Z,20.88
2022-11-21T09:23:42.400Z,20.48
2022-11-21T09:26:27.470Z,20.67
2022-11-21T09:29:15.029Z,20.92
2022-11-21T09:32:00.268Z,20.60
2022-11-21T09:34:45.588Z,21.65
2022-11-21T09:37:35.942Z,22.08
2022-11-21T09:40:21.766Z,20.85
2022-11-21T09:43:26.075Z,20.67
2022-11-21T09:46:21.608Z,21.40
2022-11-21T09:49:10.463Z,19.15
2022-11-21T09:51:57.673Z,19.27
2022-11-21T09:54:52.608Z,21.00
2022-11-21T09:57:37.664Z,20.67
2022-11-21T10:00:25.356Z,20.05
2022-11-21T10:03:13.888Z,21.85
2022-11-21T10:06:03.781Z,20.67
2022-11-21T10:09:26.668Z,19.48
2022-11-21T10:12:37.786Z,19.88
2022-11-21T10:15:42.174Z,18.40
2022-11-21T10:18:33.674Z,17.90
2022-11-21T10:21:32.619Z,18.93
2022-11-21T10:24:42.641Z,19.88
2022-11-21T10:27:37.375Z,20.20
2022-11-21T10:30:23.286Z,19.85
2022-11-21T10:33:17.979Z,19.35
2022-11-21T10:36:20.895Z,19.75
2022-11-21T10:39:25.687Z,18.80
2022-11-21T10:42:34.931Z,18.85
2022-11-21T10:45:20.370Z,18.73
2022-11-21T10:48:08.322Z,18.00
2022-11-21T10:51:25.305Z,19.02
2022-11-21T10:54:31.697Z,18.80
2022-11-21T10:57:20.123Z,16.77
2022-11-21T11:00:15.034Z,17.40
2022-11-21T11:03:06.279Z,17.77
2022-11-21T11:05:59.215Z,16.52
2022-11-21T11:11:39.353Z,16.98
2022-11-21T11:14:32.123Z,16.35
2022-11-21T11:17:25.604Z,16.42
2022-11-21T11:20:44.883Z,16.05
2022-11-21T11:23:30.456Z,16.50
2022-11-21T11:26:23.778Z,15.40
2022-11-21T11:29:14.645Z,15.35
2022-11-21T11:32:00.948Z,15.20
2022-11-21T11:35:20.535Z,15.02
2022-11-21T11:38:10.534Z,14.75
2022-11-21T11:40:58.192Z,14.93
2022-11-21T11:44:28.132Z,14.75
2022-11-21T11:47:30.953Z,15.02
2022-11-21T11:50:19.888Z,15.00
2022-11-21T11:53:21.445Z,15.35
2022-11-21T11:56:33.225Z,16.42
2022-11-21T11:59:38.954Z,16.85
2022-11-21T12:02:33.512Z,17.40
2022-11-21T12:05:25.713Z,18.02
2022-11-21T12:08:42.969Z,17.98
2022-11-21T12:12:08.756Z,18.02
2022-11-21T12:15:24.989Z,17.85
2022-11-21T12:18:19.812Z,17.73
2022-11-21T12:21:15.556Z,18.27
2022-11-21T12:24:03.792Z,18.83
2022-11-21T12:27:19.106Z,18.30
2022-11-21T12:30:36.759Z,17.88
2022-11-21T12:33:23.475Z,17.52
2022-11-21T12:36:22.573Z,16.63
2022-11-21T12:39:37.191Z,18.17
2022-11-21T12:42:55.411Z,17.02
2022-11-21T12:46:05.779Z,16.63
2022-11-21T12:49:43.489Z,15.82
2022-11-21T12:52:56.303Z,15.70
2022-11-21T12:55:42.344Z,15.52
2022-11-21T12:58:39.724Z,15.05
2022-11-21T13:01:36.774Z,14.57
2022-11-21T13:04:26.593Z,13.82
2022-11-21T13:07:12.861Z,13.55
2022-11-21T13:10:02.484Z,12.65
2022-11-21T13:12:59.820Z,11.65
2022-11-21T13:15:57.735Z,12.20
2022-11-21T13:18:48.151Z,12.10
2022-11-21T13:21:48.552Z,11.65
2022-11-21T13:24:47.260Z,11.27
2022-11-21T13:27:39.123Z,10.27
2022-11-21T13:30:25.815Z,10.38
2022-11-21T13:33:34.200Z,10.73
2022-11-21T13:36:28.554Z,15.38
2022-11-21T13:39:16.775Z,14.07
2022-11-21T13:42:25.798Z,15.77
2022-11-21T13:45:48.251Z,15.73
2022-11-21T13:48:57.001Z,15.90
2022-11-21T13:51:53.810Z,15.38
2022-11-21T13:55:08.995Z,15.38
2022-11-21T13:58:09.078Z,16.05
2022-11-21T14:01:07.324Z,17.50
2022-11-21T14:04:21.219Z,16.85
2022-11-21T14:07:30.092Z,17.30
2022-11-21T14:10:25.206Z,17.17
2022-11-21T14:13:28.313Z,14.88
2022-11-21T14:16:41.795Z,14.18
2022-11-21T14:19:28.151Z,14.27
2022-11-21T14:22:50.539Z,14.98
2022-11-21T14:25:48.302Z,14.93
2022-11-21T14:28:34.894Z,13.75
2022-11-21T14:31:21.109Z,13.52
2022-11-21T14:34:09.542Z,12.77
2022-11-21T14:36:57.734Z,12.90
2022-11-21T14:39:44.938Z,12.02
2022-11-21T14:42:37.044Z,11.70
2022-11-21T14:45:23.877Z,11.00
2022-11-21T14:48:12.951Z,10.35
2022-11-21T14:51:01.865Z,10.35
2022-11-21T14:53:49.662Z,9.00
2022-11-21T14:56:35.004Z,9.25
2022-11-21T14:59:25.224Z,8.20
2022-11-21T15:02:17.751Z,7.32
2022-11-21T15:05:07.914Z,7.53
2022-11-21T15:08:10.466Z,7.80
2022-11-21T15:11:00.625Z,7.30
2022-11-21T15:16:57.926Z,6.85
2022-11-21T15:19:44.871Z,6.00
2022-11-21T15:22:36.779Z,5.82
2022-11-21T15:25:24.402Z,6.27
2022-11-21T15:28:15.663Z,6.30
2022-11-21T15:31:21.539Z,6.15
2022-11-21T15:37:18.224Z,7.00
2022-11-21T15:40:03.727Z,6.65
2022-11-21T15:42:50.186Z,6.72
2022-11-21T15:45:35.987Z,5.80
2022-11-21T15:48:23.639Z,6.10
2022-11-21T15:51:10.939Z,6.60
2022-11-21T15:53:56.011Z,6.53
2022-11-21T15:56:41.965Z,6.50
2022-11-21T15:59:27.543Z,6.28
2022-11-21T16:02:14.488Z,6.13
2022-11-21T16:04:59.588Z,6.50
2022-11-21T16:07:45.332Z,6.25
2022-11-21T16:10:30.957Z,6.00
2022-11-21T16:13:16.183Z,6.50
2022-11-21T16:16:02.164Z,6.18
2022-11-21T16:18:47.977Z,6.53
2022-11-21T16:21:33.247Z,6.40
2022-11-21T16:24:18.872Z,5.78
2022-11-21T16:27:04.471Z,5.95
2022-11-21T16:29:49.803Z,6.35
2022-11-21T16:32:35.319Z,6.45
2022-11-21T16:35:20.927Z,6.53
2022-11-21T16:38:10.036Z,6.38
2022-11-21T16:41:01.261Z,5.90
2022-11-21T16:43:49.810Z,5.85
2022-11-21T16:46:40.685Z,6.18
2022-11-21T16:49:25.751Z,6.90
2022-11-21T16:52:11.596Z,6.10
2022-11-21T16:54:57.879Z,6.05
2022-11-21T16:57:43.594Z,6.05
2022-11-21T17:00:29.241Z,6.30
2022-11-21T17:03:14.765Z,6.30
2022-11-21T17:06:00.641Z,5.30
2022-11-21T17:08:47.192Z,6.07
2022-11-21T17:11:32.666Z,6.57
2022-11-21T17:14:18.335Z,6.20
2022-11-21T17:17:03.763Z,6.22
2022-11-21T17:19:49.320Z,6.45
2022-11-21T17:22:35.405Z,7.18
2022-11-21T17:25:21.082Z,6.72
2022-11-21T17:28:06.324Z,6.63
2022-11-21T17:30:51.667Z,7.05
2022-11-21T17:33:37.487Z,6.38
2022-11-21T17:36:24.928Z,6.78
2022-11-21T17:39:10.061Z,6.70
2022-11-21T17:41:55.691Z,6.82
2022-11-21T17:44:40.883Z,7.28
2022-11-21T17:47:26.382Z,7.28
2022-11-21T17:50:12.228Z,6.93
2022-11-21T17:52:57.804Z,6.57
2022-11-21T17:55:42.848Z,6.45
2022-11-21T17:58:29.458Z,6.50
2022-11-21T18:01:19.361Z,6.13
2022-11-21T18:04:11.830Z,6.32
2022-11-21T18:07:00.042Z,6.47
2022-11-21T18:09:45.662Z,7.10
2022-11-21T18:12:30.929Z,7.03
2022-11-21T18:15:16.651Z,6.75
2022-11-21T18:18:01.886Z,7.00
2022-11-21T18:20:47.731Z,8.07
2022-11-21T18:23:33.060Z,7.90
2022-11-21T18:26:22.279Z,7.38
2022-11-21T18:32:14.867Z,7.65
2022-11-21T18:35:00.344Z,8.20
2022-11-21T18:37:46.983Z,8.18
2022-11-21T18:40:32.595Z,8.02
2022-11-21T18:43:18.448Z,7.43
2022-11-21T18:46:09.324Z,8.30
2022-11-21T18:49:02.767Z,7.53
2022-11-21T18:51:50.167Z,7.72
2022-11-21T18:54:35.778Z,7.28
2022-11-21T18:57:21.146Z,8.07
2022-11-21T19:00:07.422Z,6.95
2022-11-21T19:02:52.618Z,6.80
2022-11-21T19:05:41.771Z,6.93
2022-11-21T19:08:27.495Z,6.72
2022-11-21T19:11:15.291Z,6.43
2022-11-21T19:14:01.065Z,6.70
2022-11-21T19:16:46.222Z,5.95
2022-11-21T19:19:34.485Z,7.20
2022-11-21T19:22:20.343Z,6.35
2022-11-21T19:25:06.034Z,7.32
2022-11-21T19:27:51.483Z,6.60
2022-11-21T19:30:36.651Z,6.80
2022-11-21T19:33:22.296Z,6.35
2022-11-21T19:36:11.375Z,6.53
2022-11-21T19:38:56.568Z,6.88
2022-11-21T19:41:42.020Z,6.50
2022-11-21T19:44:27.424Z,7.28
2022-11-21T19:47:13.336Z,6.90
2022-11-21T19:49:58.791Z,6.60
2022-11-21T19:52:44.179Z,7.15
2022-11-21T19:55:29.791Z,6.45
2022-11-21T19:58:14.822Z,6.22
2022-11-21T20:01:14.420Z,6.82
2022-11-21T20:04:02.031Z,6.57
2022-11-21T20:06:47.842Z,6.95
2022-11-21T20:09:34.716Z,6.35
2022-11-21T20:12:20.551Z,6.10
2022-11-21T20:15:06.213Z,5.90
2022-11-21T20:17:51.381Z,6.60
2022-11-21T20:20:36.507Z,6.10
2022-11-21T20:23:22.090Z,5.53
2022-11-21T20:26:08.874Z,6.40
2022-11-21T20:28:54.778Z,6.75
2022-11-21T20:31:40.593Z,6.18
2022-11-21T20:34:26.155Z,5.43
2022-11-21T20:37:11.184Z,5.95
2022-11-21T20:39:56.912Z,6.32
2022-11-21T20:42:42.166Z,6.43
2022-11-21T20:48:35.560Z,6.35
2022-11-21T20:54:26.440Z,6.97
2022-11-21T20:57:15.176Z,6.30
2022-11-21T21:00:00.637Z,6.13
2022-11-21T21:02:46.307Z,6.47
2022-11-21T21:05:31.782Z,6.30
2022-11-21T21:08:17.399Z,6.72
2022-11-21T21:11:06.613Z,7.20
2022-11-21T21:13:52.193Z,6.63
2022-11-21T21:16:37.598Z,7.00
2022-11-21T21:19:24.491Z,6.72
2022-11-21T21:22:09.928Z,6.40
2022-11-21T21:24:55.488Z,6.72
2022-11-21T21:27:40.936Z,6.90
2022-11-21T21:30:26.420Z,6.85
2022-11-21T21:33:13.700Z,7.28
2022-11-21T21:36:05.223Z,7.45
2022-11-21T21:38:51.441Z,6.63
2022-11-21T21:41:40.025Z,6.82
2022-11-21T21:44:31.447Z,7.70
2022-11-21T21:47:21.279Z,7.47
2022-11-21T21:50:10.255Z,6.75
2022-11-21T21:53:00.620Z,7.00
2022-11-21T21:55:46.117Z,7.40
2022-11-21T21:58:36.548Z,7.70
2022-11-21T22:01:30.477Z,8.05
2022-11-21T22:04:16.069Z,7.75
2022-11-21T22:07:02.715Z,8.00
2022-11-21T22:09:48.616Z,7.70
2022-11-21T22:12:33.702Z,7.25
2022-11-21T22:15:19.289Z,7.88
2022-11-21T22:18:04.689Z,7.43
2022-11-21T22:20:50.803Z,7.50
2022-11-21T22:23:36.247Z,7.40
2022-11-21T22:26:22.060Z,7.47
2022-11-21T22:29:07.754Z,8.23
2022-11-21T22:31:52.994Z,7.97
2022-11-21T22:34:38.438Z,7.88
2022-11-21T22:37:24.243Z,8.52
2022-11-21T22:40:10.214Z,8.32
2022-11-21T22:42:56.139Z,7.80
2022-11-21T22:45:41.252Z,8.07
2022-11-21T22:48:27.067Z,8.32
2022-11-21T22:51:14.361Z,8.63
2022-11-21T22:53:59.998Z,7.80
2022-11-21T22:56:45.675Z,7.45
2022-11-21T22:59:31.458Z,8.00
2022-11-21T23:02:16.795Z,8.02
2022-11-21T23:05:02.809Z,7.22
2022-11-21T23:07:48.208Z,7.40
2022-11-21T23:10:33.678Z,7.78
2022-11-21T23:13:19.098Z,7.55
2022-11-21T23:16:06.145Z,7.90
2022-11-21T23:18:53.035Z,7.60
2022-11-21T23:21:38.551Z,7.28
2022-11-21T23:24:23.870Z,6.93
2022-11-21T23:27:09.383Z,7.07
2022-11-21T23:29:54.617Z,7.90
2022-11-21T23:32:40.136Z,8.20
2022-11-21T23:35:25.460Z,8.45
2022-11-21T23:38:12.225Z,7.28
2022-11-21T23:40:57.631Z,7.80
2022-11-21T23:43:43.043Z,8.43
2022-11-21T23:46:29.553Z,8.23
2022-11-21T23:49:15.028Z,9.40
2022-11-21T23:52:00.319Z,8.43
2022-11-21T23:54:46.094Z,8.73
2022-11-21T23:57:31.382Z,9.00
